sensor_id;sensor_type;location;lat;lon;timestamp;P1;durP1;ratioP1;P2;durP2;ratioP2
29500;SDS011;16450;50.288;10.966;2023-02-07T00:00:48;30.60;;;14.87;;
29500;SDS011;16450;50.288;10.966;2023-02-07T00:03:50;30.07;;;15.83;;
29500;SDS011;16450;50.288;10.966;2023-02-07T00:06:54;26.03;;;14.97;;
29500;SDS011;16450;50.288;10.966;2023-02-07T00:09:56;26.53;;;14.23;;
29500;SDS011;16450;50.288;10.966;2023-02-07T00:12:57;31.97;;;16.70;;
29500;SDS011;16450;50.288;10.966;2023-02-07T00:15:59;31.43;;;16.87;;
29500;SDS011;16450;50.288;10.966;2023-02-07T00:19:02;30.80;;;16.07;;
29500;SDS011;16450;50.288;10.966;2023-02-07T00:22:04;30.17;;;15.73;;
29500;SDS011;16450;50.288;10.966;2023-02-07T00:25:06;26.40;;;14.57;;
29500;SDS011;16450;50.288;10.966;2023-02-07T00:28:08;27.40;;;14.70;;
29500;SDS011;16450;50.288;10.966;2023-02-07T00:31:14;28.80;;;14.60;;
29500;SDS011;16450;50.288;10.966;2023-02-07T00:34:18;29.97;;;16.00;;
29500;SDS011;16450;50.288;10.966;2023-02-07T00:37:20;31.67;;;15.93;;
29500;SDS011;16450;50.288;10.966;2023-02-07T00:40:22;32.67;;;16.40;;
29500;SDS011;16450;50.288;10.966;2023-02-07T00:43:24;28.40;;;14.93;;
29500;SDS011;16450;50.288;10.966;2023-02-07T00:46:30;30.60;;;15.70;;
29500;SDS011;16450;50.288;10.966;2023-02-07T00:49:32;28.43;;;14.97;;
29500;SDS011;16450;50.288;10.966;2023-02-07T00:52:33;32.40;;;16.50;;
29500;SDS011;16450;50.288;10.966;2023-02-07T00:55:35;28.20;;;15.07;;
29500;SDS011;16450;50.288;10.966;2023-02-07T00:58:38;27.23;;;14.97;;
29500;SDS011;16450;50.288;10.966;2023-02-07T01:01:39;30.53;;;15.30;;
29500;SDS011;16450;50.288;10.966;2023-02-07T01:04:41;29.13;;;14.60;;
29500;SDS011;16450;50.288;10.966;2023-02-07T01:07:43;28.43;;;14.70;;
29500;SDS011;16450;50.288;10.966;2023-02-07T01:10:45;31.83;;;16.20;;
29500;SDS011;16450;50.288;10.966;2023-02-07T01:13:47;29.67;;;15.73;;
29500;SDS011;16450;50.288;10.966;2023-02-07T01:16:49;31.17;;;15.60;;
29500;SDS011;16450;50.288;10.966;2023-02-07T01:19:54;33.47;;;15.70;;
29500;SDS011;16450;50.288;10.966;2023-02-07T01:23:00;28.27;;;14.47;;
29500;SDS011;16450;50.288;10.966;2023-02-07T01:26:03;26.80;;;14.10;;
29500;SDS011;16450;50.288;10.966;2023-02-07T01:29:06;28.67;;;15.40;;
29500;SDS011;16450;50.288;10.966;2023-02-07T01:32:08;31.53;;;15.57;;
29500;SDS011;16450;50.288;10.966;2023-02-07T01:35:10;29.33;;;15.10;;
29500;SDS011;16450;50.288;10.966;2023-02-07T01:38:12;30.20;;;14.77;;
29500;SDS011;16450;50.288;10.966;2023-02-07T01:41:14;29.83;;;15.33;;
29500;SDS011;16450;50.288;10.966;2023-02-07T01:47:24;32.03;;;16.30;;
29500;SDS011;16450;50.288;10.966;2023-02-07T01:50:26;30.43;;;15.90;;
29500;SDS011;16450;50.288;10.966;2023-02-07T01:53:29;29.63;;;15.37;;
29500;SDS011;16450;50.288;10.966;2023-02-07T01:56:32;30.77;;;15.40;;
29500;SDS011;16450;50.288;10.966;2023-02-07T01:59:35;30.90;;;16.17;;
29500;SDS011;16450;50.288;10.966;2023-02-07T02:02:39;30.23;;;15.77;;
29500;SDS011;16450;50.288;10.966;2023-02-07T02:05:41;29.80;;;15.40;;
29500;SDS011;16450;50.288;10.966;2023-02-07T02:08:44;33.87;;;16.00;;
29500;SDS011;16450;50.288;10.966;2023-02-07T02:11:58;31.13;;;14.73;;
29500;SDS011;16450;50.288;10.966;2023-02-07T02:15:42;31.13;;;15.67;;
29500;SDS011;16450;50.288;10.966;2023-02-07T02:19:04;31.97;;;16.07;;
29500;SDS011;16450;50.288;10.966;2023-02-07T02:22:26;32.37;;;15.73;;
29500;SDS011;16450;50.288;10.966;2023-02-07T02:25:50;29.77;;;15.20;;
29500;SDS011;16450;50.288;10.966;2023-02-07T02:35:50;28.20;;;14.73;;
29500;SDS011;16450;50.288;10.966;2023-02-07T02:39:12;33.77;;;16.47;;
29500;SDS011;16450;50.288;10.966;2023-02-07T02:42:23;30.23;;;15.70;;
29500;SDS011;16450;50.288;10.966;2023-02-07T02:45:34;30.07;;;15.47;;
29500;SDS011;16450;50.288;10.966;2023-02-07T02:48:40;27.37;;;15.00;;
29500;SDS011;16450;50.288;10.966;2023-02-07T02:51:43;24.80;;;13.43;;
29500;SDS011;16450;50.288;10.966;2023-02-07T02:54:49;31.30;;;15.07;;
29500;SDS011;16450;50.288;10.966;2023-02-07T03:08:11;29.83;;;14.93;;
29500;SDS011;16450;50.288;10.966;2023-02-07T03:11:35;27.80;;;14.47;;
29500;SDS011;16450;50.288;10.966;2023-02-07T03:21:11;30.70;;;14.83;;
29500;SDS011;16450;50.288;10.966;2023-02-07T03:24:30;30.97;;;15.43;;
29500;SDS011;16450;50.288;10.966;2023-02-07T03:27:34;29.23;;;14.80;;
29500;SDS011;16450;50.288;10.966;2023-02-07T03:30:38;35.07;;;15.37;;
29500;SDS011;16450;50.288;10.966;2023-02-07T03:33:45;27.43;;;13.73;;
29500;SDS011;16450;50.288;10.966;2023-02-07T03:36:54;28.30;;;14.23;;
29500;SDS011;16450;50.288;10.966;2023-02-07T03:40:03;30.77;;;15.20;;
29500;SDS011;16450;50.288;10.966;2023-02-07T03:46:16;31.70;;;15.43;;
29500;SDS011;16450;50.288;10.966;2023-02-07T03:49:18;31.80;;;15.60;;
29500;SDS011;16450;50.288;10.966;2023-02-07T03:52:20;30.90;;;14.87;;
29500;SDS011;16450;50.288;10.966;2023-02-07T03:55:22;28.33;;;14.60;;
29500;SDS011;16450;50.288;10.966;2023-02-07T03:58:24;26.23;;;13.90;;
29500;SDS011;16450;50.288;10.966;2023-02-07T04:01:26;28.47;;;14.70;;
29500;SDS011;16450;50.288;10.966;2023-02-07T04:04:28;28.03;;;14.10;;
29500;SDS011;16450;50.288;10.966;2023-02-07T04:07:30;27.63;;;13.43;;
29500;SDS011;16450;50.288;10.966;2023-02-07T04:10:31;26.63;;;13.03;;
29500;SDS011;16450;50.288;10.966;2023-02-07T04:13:33;29.70;;;14.17;;
29500;SDS011;16450;50.288;10.966;2023-02-07T04:16:35;28.43;;;13.63;;
29500;SDS011;16450;50.288;10.966;2023-02-07T04:19:37;29.93;;;13.83;;
29500;SDS011;16450;50.288;10.966;2023-02-07T04:22:39;25.40;;;13.73;;
29500;SDS011;16450;50.288;10.966;2023-02-07T04:25:41;27.47;;;14.03;;
29500;SDS011;16450;50.288;10.966;2023-02-07T04:28:42;26.03;;;12.37;;
29500;SDS011;16450;50.288;10.966;2023-02-07T04:31:44;25.97;;;12.60;;
29500;SDS011;16450;50.288;10.966;2023-02-07T04:34:46;28.93;;;13.10;;
29500;SDS011;16450;50.288;10.966;2023-02-07T04:37:48;25.77;;;13.37;;
29500;SDS011;16450;50.288;10.966;2023-02-07T04:40:49;26.23;;;12.90;;
29500;SDS011;16450;50.288;10.966;2023-02-07T04:43:52;27.47;;;13.37;;
29500;SDS011;16450;50.288;10.966;2023-02-07T04:46:53;25.30;;;12.80;;
29500;SDS011;16450;50.288;10.966;2023-02-07T04:49:55;26.40;;;12.53;;
29500;SDS011;16450;50.288;10.966;2023-02-07T04:52:57;27.17;;;13.30;;
29500;SDS011;16450;50.288;10.966;2023-02-07T04:55:59;31.10;;;12.87;;
29500;SDS011;16450;50.288;10.966;2023-02-07T04:59:00;28.77;;;13.60;;
29500;SDS011;16450;50.288;10.966;2023-02-07T05:02:02;23.90;;;12.57;;
29500;SDS011;16450;50.288;10.966;2023-02-07T05:05:04;24.23;;;12.47;;
29500;SDS011;16450;50.288;10.966;2023-02-07T05:08:06;26.63;;;13.07;;
29500;SDS011;16450;50.288;10.966;2023-02-07T05:11:09;26.23;;;13.30;;
29500;SDS011;16450;50.288;10.966;2023-02-07T05:14:11;25.13;;;12.03;;
29500;SDS011;16450;50.288;10.966;2023-02-07T05:17:12;27.97;;;13.30;;
29500;SDS011;16450;50.288;10.966;2023-02-07T05:20:14;26.43;;;12.67;;
29500;SDS011;16450;50.288;10.966;2023-02-07T05:23:16;31.37;;;14.40;;
29500;SDS011;16450;50.288;10.966;2023-02-07T05:26:18;31.87;;;15.00;;
29500;SDS011;16450;50.288;10.966;2023-02-07T05:29:19;36.60;;;17.93;;
29500;SDS011;16450;50.288;10.966;2023-02-07T05:32:21;37.23;;;16.80;;
29500;SDS011;16450;50.288;10.966;2023-02-07T05:35:42;36.00;;;17.27;;
29500;SDS011;16450;50.288;10.966;2023-02-07T05:38:45;68.17;;;27.63;;
29500;SDS011;16450;50.288;10.966;2023-02-07T05:41:47;50.17;;;21.60;;
29500;SDS011;16450;50.288;10.966;2023-02-07T05:44:49;37.37;;;16.10;;
29500;SDS011;16450;50.288;10.966;2023-02-07T05:47:50;26.57;;;13.70;;
29500;SDS011;16450;50.288;10.966;2023-02-07T05:50:52;26.20;;;12.17;;
29500;SDS011;16450;50.288;10.966;2023-02-07T05:53:54;22.70;;;11.47;;
29500;SDS011;16450;50.288;10.966;2023-02-07T05:56:56;22.90;;;11.03;;
29500;SDS011;16450;50.288;10.966;2023-02-07T05:59:58;20.57;;;10.80;;
29500;SDS011;16450;50.288;10.966;2023-02-07T06:02:59;21.63;;;10.97;;
29500;SDS011;16450;50.288;10.966;2023-02-07T06:06:01;23.13;;;10.77;;
29500;SDS011;16450;50.288;10.966;2023-02-07T06:09:03;23.80;;;10.93;;
29500;SDS011;16450;50.288;10.966;2023-02-07T06:12:05;22.27;;;10.83;;
29500;SDS011;16450;50.288;10.966;2023-02-07T06:15:07;20.87;;;10.20;;
29500;SDS011;16450;50.288;10.966;2023-02-07T06:18:09;21.50;;;11.00;;
29500;SDS011;16450;50.288;10.966;2023-02-07T06:21:11;24.03;;;11.40;;
29500;SDS011;16450;50.288;10.966;2023-02-07T06:24:13;21.17;;;10.57;;
29500;SDS011;16450;50.288;10.966;2023-02-07T06:27:16;20.97;;;10.30;;
29500;SDS011;16450;50.288;10.966;2023-02-07T06:30:17;21.43;;;10.60;;
29500;SDS011;16450;50.288;10.966;2023-02-07T06:33:21;20.67;;;9.93;;
29500;SDS011;16450;50.288;10.966;2023-02-07T06:36:22;20.90;;;9.80;;
29500;SDS011;16450;50.288;10.966;2023-02-07T06:39:25;22.97;;;10.80;;
29500;SDS011;16450;50.288;10.966;2023-02-07T06:42:27;21.37;;;10.77;;
29500;SDS011;16450;50.288;10.966;2023-02-07T06:45:28;22.23;;;10.20;;
29500;SDS011;16450;50.288;10.966;2023-02-07T06:48:30;17.87;;;8.90;;
29500;SDS011;16450;50.288;10.966;2023-02-07T06:51:32;17.50;;;9.00;;
29500;SDS011;16450;50.288;10.966;2023-02-07T06:54:34;20.30;;;9.87;;
29500;SDS011;16450;50.288;10.966;2023-02-07T06:57:35;15.90;;;7.83;;
29500;SDS011;16450;50.288;10.966;2023-02-07T07:00:37;15.87;;;7.80;;
29500;SDS011;16450;50.288;10.966;2023-02-07T07:03:39;16.30;;;8.20;;
29500;SDS011;16450;50.288;10.966;2023-02-07T07:06:41;14.10;;;7.77;;
29500;SDS011;16450;50.288;10.966;2023-02-07T07:09:42;19.20;;;8.27;;
29500;SDS011;16450;50.288;10.966;2023-02-07T07:12:47;15.40;;;8.23;;
29500;SDS011;16450;50.288;10.966;2023-02-07T07:15:49;15.40;;;7.97;;
29500;SDS011;16450;50.288;10.966;2023-02-07T07:18:50;15.27;;;7.40;;
29500;SDS011;16450;50.288;10.966;2023-02-07T07:21:52;17.43;;;8.33;;
29500;SDS011;16450;50.288;10.966;2023-02-07T07:24:55;18.23;;;8.77;;
29500;SDS011;16450;50.288;10.966;2023-02-07T07:27:57;17.37;;;9.27;;
29500;SDS011;16450;50.288;10.966;2023-02-07T07:31:05;19.73;;;9.43;;
29500;SDS011;16450;50.288;10.966;2023-02-07T07:34:08;17.40;;;8.90;;
29500;SDS011;16450;50.288;10.966;2023-02-07T07:37:10;16.40;;;8.83;;
29500;SDS011;16450;50.288;10.966;2023-02-07T07:40:12;21.57;;;11.13;;
29500;SDS011;16450;50.288;10.966;2023-02-07T07:43:14;21.07;;;10.87;;
29500;SDS011;16450;50.288;10.966;2023-02-07T07:46:16;23.57;;;11.23;;
29500;SDS011;16450;50.288;10.966;2023-02-07T07:49:18;31.43;;;13.67;;
29500;SDS011;16450;50.288;10.966;2023-02-07T07:52:20;31.70;;;13.27;;
29500;SDS011;16450;50.288;10.966;2023-02-07T07:55:22;28.90;;;13.73;;
29500;SDS011;16450;50.288;10.966;2023-02-07T07:58:24;24.40;;;11.60;;
29500;SDS011;16450;50.288;10.966;2023-02-07T08:01:27;23.83;;;11.10;;
29500;SDS011;16450;50.288;10.966;2023-02-07T08:04:29;26.07;;;11.10;;
29500;SDS011;16450;50.288;10.966;2023-02-07T08:07:30;22.50;;;10.20;;
29500;SDS011;16450;50.288;10.966;2023-02-07T08:10:32;21.30;;;10.30;;
29500;SDS011;16450;50.288;10.966;2023-02-07T08:13:34;19.97;;;9.93;;
29500;SDS011;16450;50.288;10.966;2023-02-07T08:16:37;21.37;;;10.10;;
29500;SDS011;16450;50.288;10.966;2023-02-07T08:19:39;18.80;;;9.77;;
29500;SDS011;16450;50.288;10.966;2023-02-07T08:22:41;20.30;;;10.67;;
29500;SDS011;16450;50.288;10.966;2023-02-07T08:25:42;22.03;;;11.10;;
29500;SDS011;16450;50.288;10.966;2023-02-07T08:28:46;21.33;;;11.20;;
29500;SDS011;16450;50.288;10.966;2023-02-07T08:31:50;21.53;;;11.67;;
29500;SDS011;16450;50.288;10.966;2023-02-07T08:34:51;22.07;;;10.60;;
29500;SDS011;16450;50.288;10.966;2023-02-07T08:37:53;20.20;;;10.23;;
29500;SDS011;16450;50.288;10.966;2023-02-07T08:40:56;24.43;;;11.57;;
29500;SDS011;16450;50.288;10.966;2023-02-07T08:43:57;21.70;;;10.87;;
29500;SDS011;16450;50.288;10.966;2023-02-07T08:46:59;22.63;;;11.00;;
29500;SDS011;16450;50.288;10.966;2023-02-07T08:50:01;21.37;;;11.00;;
29500;SDS011;16450;50.288;10.966;2023-02-07T08:53:04;21.43;;;11.33;;
29500;SDS011;16450;50.288;10.966;2023-02-07T08:56:05;19.33;;;10.57;;
29500;SDS011;16450;50.288;10.966;2023-02-07T08:59:09;20.23;;;10.33;;
29500;SDS011;16450;50.288;10.966;2023-02-07T09:02:10;20.93;;;10.43;;
29500;SDS011;16450;50.288;10.966;2023-02-07T09:05:12;19.57;;;10.17;;
29500;SDS011;16450;50.288;10.966;2023-02-07T09:08:14;21.77;;;10.40;;
29500;SDS011;16450;50.288;10.966;2023-02-07T09:11:16;18.47;;;10.47;;
29500;SDS011;16450;50.288;10.966;2023-02-07T09:14:18;16.93;;;9.53;;
29500;SDS011;16450;50.288;10.966;2023-02-07T09:17:20;19.03;;;9.90;;
29500;SDS011;16450;50.288;10.966;2023-02-07T09:20:21;22.10;;;10.23;;
29500;SDS011;16450;50.288;10.966;2023-02-07T09:23:24;17.80;;;9.80;;
29500;SDS011;16450;50.288;10.966;2023-02-07T09:26:26;19.43;;;9.37;;
29500;SDS011;16450;50.288;10.966;2023-02-07T09:29:28;17.57;;;9.80;;
29500;SDS011;16450;50.288;10.966;2023-02-07T09:32:30;19.13;;;10.20;;
29500;SDS011;16450;50.288;10.966;2023-02-07T09:35:35;19.60;;;10.43;;
29500;SDS011;16450;50.288;10.966;2023-02-07T09:38:38;19.80;;;10.37;;
29500;SDS011;16450;50.288;10.966;2023-02-07T09:41:56;18.03;;;10.07;;
29500;SDS011;16450;50.288;10.966;2023-02-07T09:48:15;15.70;;;9.07;;
29500;SDS011;16450;50.288;10.966;2023-02-07T09:51:22;15.43;;;9.17;;
29500;SDS011;16450;50.288;10.966;2023-02-07T09:54:29;17.70;;;9.20;;
29500;SDS011;16450;50.288;10.966;2023-02-07T09:57:39;18.40;;;10.00;;
29500;SDS011;16450;50.288;10.966;2023-02-07T10:00:59;19.33;;;11.17;;
29500;SDS011;16450;50.288;10.966;2023-02-07T10:04:22;15.70;;;10.00;;
29500;SDS011;16450;50.288;10.966;2023-02-07T10:07:31;16.93;;;9.50;;
29500;SDS011;16450;50.288;10.966;2023-02-07T10:10:35;15.63;;;8.90;;
29500;SDS011;16450;50.288;10.966;2023-02-07T10:13:49;15.93;;;9.57;;
29500;SDS011;16450;50.288;10.966;2023-02-07T10:17:07;16.67;;;9.33;;
29500;SDS011;16450;50.288;10.966;2023-02-07T10:27:36;25.93;;;12.53;;
29500;SDS011;16450;50.288;10.966;2023-02-07T10:30:56;42.27;;;22.70;;
29500;SDS011;16450;50.288;10.966;2023-02-07T10:34:10;21.00;;;12.27;;
29500;SDS011;16450;50.288;10.966;2023-02-07T10:37:18;17.37;;;8.67;;
29500;SDS011;16450;50.288;10.966;2023-02-07T10:40:24;15.03;;;8.30;;
29500;SDS011;16450;50.288;10.966;2023-02-07T10:43:30;17.90;;;10.17;;
29500;SDS011;16450;50.288;10.966;2023-02-07T10:46:33;18.60;;;13.53;;
29500;SDS011;16450;50.288;10.966;2023-02-07T10:49:36;14.90;;;8.27;;
29500;SDS011;16450;50.288;10.966;2023-02-07T10:52:39;18.53;;;7.83;;
29500;SDS011;16450;50.288;10.966;2023-02-07T10:55:49;14.30;;;7.43;;
29500;SDS011;16450;50.288;10.966;2023-02-07T10:58:51;14.97;;;7.63;;
29500;SDS011;16450;50.288;10.966;2023-02-07T11:01:54;15.53;;;7.60;;
29500;SDS011;16450;50.288;10.966;2023-02-07T11:05:04;12.53;;;7.10;;
29500;SDS011;16450;50.288;10.966;2023-02-07T11:08:20;14.37;;;7.43;;
29500;SDS011;16450;50.288;10.966;2023-02-07T11:11:28;12.07;;;6.90;;
29500;SDS011;16450;50.288;10.966;2023-02-07T11:14:33;15.33;;;6.77;;
29500;SDS011;16450;50.288;10.966;2023-02-07T11:17:36;8.77;;;5.43;;
29500;SDS011;16450;50.288;10.966;2023-02-07T11:20:39;10.50;;;5.67;;
29500;SDS011;16450;50.288;10.966;2023-02-07T11:23:42;10.43;;;6.20;;
29500;SDS011;16450;50.288;10.966;2023-02-07T11:30:08;9.83;;;5.53;;
29500;SDS011;16450;50.288;10.966;2023-02-07T11:33:24;8.93;;;5.20;;
29500;SDS011;16450;50.288;10.966;2023-02-07T11:36:29;9.53;;;4.97;;
29500;SDS011;16450;50.288;10.966;2023-02-07T11:39:33;9.00;;;5.13;;
29500;SDS011;16450;50.288;10.966;2023-02-07T11:42:35;8.87;;;4.90;;
29500;SDS011;16450;50.288;10.966;2023-02-07T11:45:38;9.57;;;5.43;;
29500;SDS011;16450;50.288;10.966;2023-02-07T11:48:45;10.30;;;4.83;;
29500;SDS011;16450;50.288;10.966;2023-02-07T11:51:50;7.60;;;4.83;;
29500;SDS011;16450;50.288;10.966;2023-02-07T11:55:00;9.13;;;4.87;;
29500;SDS011;16450;50.288;10.966;2023-02-07T12:01:37;8.40;;;4.67;;
29500;SDS011;16450;50.288;10.966;2023-02-07T12:04:39;8.03;;;4.40;;
29500;SDS011;16450;50.288;10.966;2023-02-07T12:07:46;8.87;;;4.67;;
29500;SDS011;16450;50.288;10.966;2023-02-07T12:10:53;9.93;;;4.73;;
29500;SDS011;16450;50.288;10.966;2023-02-07T12:14:04;11.37;;;4.60;;
29500;SDS011;16450;50.288;10.966;2023-02-07T12:17:15;8.37;;;4.50;;
29500;SDS011;16450;50.288;10.966;2023-02-07T12:23:59;10.40;;;4.50;;
29500;SDS011;16450;50.288;10.966;2023-02-07T12:27:29;8.73;;;4.80;;
29500;SDS011;16450;50.288;10.966;2023-02-07T12:30:39;17.80;;;5.00;;
29500;SDS011;16450;50.288;10.966;2023-02-07T12:33:49;10.80;;;4.73;;
29500;SDS011;16450;50.288;10.966;2023-02-07T12:37:23;9.83;;;4.53;;
29500;SDS011;16450;50.288;10.966;2023-02-07T12:40:46;8.37;;;4.80;;
29500;SDS011;16450;50.288;10.966;2023-02-07T12:47:12;9.37;;;4.57;;
29500;SDS011;16450;50.288;10.966;2023-02-07T12:50:38;8.10;;;4.67;;
29500;SDS011;16450;50.288;10.966;2023-02-07T13:10:17;8.13;;;4.50;;
29500;SDS011;16450;50.288;10.966;2023-02-07T13:23:46;7.43;;;4.33;;
29500;SDS011;16450;50.288;10.966;2023-02-07T13:27:05;8.27;;;4.37;;
29500;SDS011;16450;50.288;10.966;2023-02-07T13:30:17;9.83;;;4.60;;
29500;SDS011;16450;50.288;10.966;2023-02-07T13:36:40;9.50;;;5.13;;
29500;SDS011;16450;50.288;10.966;2023-02-07T13:40:00;9.37;;;5.20;;
29500;SDS011;16450;50.288;10.966;2023-02-07T13:49:50;10.03;;;5.30;;
29500;SDS011;16450;50.288;10.966;2023-02-07T13:56:56;8.13;;;5.00;;
29500;SDS011;16450;50.288;10.966;2023-02-07T14:00:19;10.23;;;5.07;;
29500;SDS011;16450;50.288;10.966;2023-02-07T14:03:27;10.37;;;4.83;;
29500;SDS011;16450;50.288;10.966;2023-02-07T14:06:42;8.63;;;4.63;;
29500;SDS011;16450;50.288;10.966;2023-02-07T14:09:55;8.77;;;5.20;;
29500;SDS011;16450;50.288;10.966;2023-02-07T14:12:59;9.83;;;4.47;;
29500;SDS011;16450;50.288;10.966;2023-02-07T14:16:09;9.00;;;4.67;;
29500;SDS011;16450;50.288;10.966;2023-02-07T14:19:13;9.10;;;5.07;;
29500;SDS011;16450;50.288;10.966;2023-02-07T14:25:39;10.07;;;5.87;;
29500;SDS011;16450;50.288;10.966;2023-02-07T14:28:42;16.20;;;8.23;;
29500;SDS011;16450;50.288;10.966;2023-02-07T14:31:47;35.57;;;18.77;;
29500;SDS011;16450;50.288;10.966;2023-02-07T14:38:07;9.10;;;5.27;;
29500;SDS011;16450;50.288;10.966;2023-02-07T14:41:16;11.83;;;5.40;;
29500;SDS011;16450;50.288;10.966;2023-02-07T14:44:28;8.47;;;4.83;;
29500;SDS011;16450;50.288;10.966;2023-02-07T14:47:35;8.13;;;5.03;;
29500;SDS011;16450;50.288;10.966;2023-02-07T14:50:37;9.33;;;5.10;;
29500;SDS011;16450;50.288;10.966;2023-02-07T14:53:40;9.87;;;4.47;;
29500;SDS011;16450;50.288;10.966;2023-02-07T14:56:49;10.23;;;4.87;;
29500;SDS011;16450;50.288;10.966;2023-02-07T15:03:15;10.13;;;4.77;;
29500;SDS011;16450;50.288;10.966;2023-02-07T15:06:19;9.90;;;5.57;;
29500;SDS011;16450;50.288;10.966;2023-02-07T15:09:33;8.50;;;4.83;;
29500;SDS011;16450;50.288;10.966;2023-02-07T15:12:35;9.67;;;5.73;;
29500;SDS011;16450;50.288;10.966;2023-02-07T15:15:43;8.40;;;4.90;;
29500;SDS011;16450;50.288;10.966;2023-02-07T15:18:54;9.97;;;5.40;;
29500;SDS011;16450;50.288;10.966;2023-02-07T15:21:59;8.17;;;5.43;;
29500;SDS011;16450;50.288;10.966;2023-02-07T15:25:01;10.07;;;5.70;;
29500;SDS011;16450;50.288;10.966;2023-02-07T15:28:23;9.63;;;5.23;;
29500;SDS011;16450;50.288;10.966;2023-02-07T15:31:29;7.87;;;5.10;;
29500;SDS011;16450;50.288;10.966;2023-02-07T15:34:38;9.37;;;5.43;;
29500;SDS011;16450;50.288;10.966;2023-02-07T15:37:40;11.70;;;5.73;;
29500;SDS011;16450;50.288;10.966;2023-02-07T15:40:42;10.37;;;5.60;;
29500;SDS011;16450;50.288;10.966;2023-02-07T15:43:57;10.23;;;6.07;;
29500;SDS011;16450;50.288;10.966;2023-02-07T15:47:05;12.57;;;5.13;;
29500;SDS011;16450;50.288;10.966;2023-02-07T15:53:16;12.40;;;7.00;;
29500;SDS011;16450;50.288;10.966;2023-02-07T15:56:24;12.97;;;6.20;;
29500;SDS011;16450;50.288;10.966;2023-02-07T15:59:29;11.23;;;6.90;;
29500;SDS011;16450;50.288;10.966;2023-02-07T16:02:35;11.80;;;5.53;;
29500;SDS011;16450;50.288;10.966;2023-02-07T16:05:39;11.43;;;6.20;;
29500;SDS011;16450;50.288;10.966;2023-02-07T16:08:42;10.50;;;5.47;;
29500;SDS011;16450;50.288;10.966;2023-02-07T16:11:44;11.50;;;6.40;;
29500;SDS011;16450;50.288;10.966;2023-02-07T16:14:46;15.60;;;7.43;;
29500;SDS011;16450;50.288;10.966;2023-02-07T16:17:48;14.47;;;5.90;;
29500;SDS011;16450;50.288;10.966;2023-02-07T16:20:50;11.73;;;5.90;;
29500;SDS011;16450;50.288;10.966;2023-02-07T16:24:00;14.47;;;6.37;;
29500;SDS011;16450;50.288;10.966;2023-02-07T16:27:07;17.67;;;8.20;;
29500;SDS011;16450;50.288;10.966;2023-02-07T16:30:18;16.10;;;6.63;;
29500;SDS011;16450;50.288;10.966;2023-02-07T16:33:23;16.07;;;8.53;;
29500;SDS011;16450;50.288;10.966;2023-02-07T16:36:25;29.17;;;13.87;;
29500;SDS011;16450;50.288;10.966;2023-02-07T16:39:29;25.60;;;13.07;;
29500;SDS011;16450;50.288;10.966;2023-02-07T16:42:31;24.60;;;13.30;;
29500;SDS011;16450;50.288;10.966;2023-02-07T16:45:32;13.83;;;8.13;;
29500;SDS011;16450;50.288;10.966;2023-02-07T16:48:39;18.20;;;9.43;;
29500;SDS011;16450;50.288;10.966;2023-02-07T16:51:41;28.10;;;14.30;;
29500;SDS011;16450;50.288;10.966;2023-02-07T16:54:43;23.40;;;13.77;;
29500;SDS011;16450;50.288;10.966;2023-02-07T16:57:47;22.83;;;12.60;;
29500;SDS011;16450;50.288;10.966;2023-02-07T17:00:49;21.83;;;12.73;;
29500;SDS011;16450;50.288;10.966;2023-02-07T17:03:51;25.60;;;11.93;;
29500;SDS011;16450;50.288;10.966;2023-02-07T17:06:53;19.60;;;10.27;;
29500;SDS011;16450;50.288;10.966;2023-02-07T17:09:55;16.70;;;9.93;;
29500;SDS011;16450;50.288;10.966;2023-02-07T17:12:58;18.13;;;10.27;;
29500;SDS011;16450;50.288;10.966;2023-02-07T17:16:00;18.13;;;9.80;;
29500;SDS011;16450;50.288;10.966;2023-02-07T17:19:04;19.47;;;10.87;;
29500;SDS011;16450;50.288;10.966;2023-02-07T17:22:13;17.33;;;10.60;;
29500;SDS011;16450;50.288;10.966;2023-02-07T17:25:16;27.23;;;11.53;;
29500;SDS011;16450;50.288;10.966;2023-02-07T17:28:18;20.73;;;11.30;;
29500;SDS011;16450;50.288;10.966;2023-02-07T17:31:20;29.10;;;16.33;;
29500;SDS011;16450;50.288;10.966;2023-02-07T17:34:23;25.97;;;15.57;;
29500;SDS011;16450;50.288;10.966;2023-02-07T17:37:24;25.93;;;14.70;;
29500;SDS011;16450;50.288;10.966;2023-02-07T17:40:28;29.07;;;15.57;;
29500;SDS011;16450;50.288;10.966;2023-02-07T17:43:35;28.27;;;15.63;;
29500;SDS011;16450;50.288;10.966;2023-02-07T17:46:37;28.93;;;16.50;;
29500;SDS011;16450;50.288;10.966;2023-02-07T17:49:38;26.67;;;13.87;;
29500;SDS011;16450;50.288;10.966;2023-02-07T17:52:40;22.23;;;13.33;;
29500;SDS011;16450;50.288;10.966;2023-02-07T17:55:42;25.07;;;14.47;;
29500;SDS011;16450;50.288;10.966;2023-02-07T17:58:43;21.63;;;12.17;;
29500;SDS011;16450;50.288;10.966;2023-02-07T18:01:45;14.67;;;8.37;;
29500;SDS011;16450;50.288;10.966;2023-02-07T18:04:47;17.17;;;10.33;;
29500;SDS011;16450;50.288;10.966;2023-02-07T18:07:51;19.00;;;10.07;;
29500;SDS011;16450;50.288;10.966;2023-02-07T18:10:53;19.80;;;9.93;;
29500;SDS011;16450;50.288;10.966;2023-02-07T18:13:55;21.17;;;10.43;;
29500;SDS011;16450;50.288;10.966;2023-02-07T18:16:57;18.40;;;10.63;;
29500;SDS011;16450;50.288;10.966;2023-02-07T18:19:59;14.73;;;8.77;;
29500;SDS011;16450;50.288;10.966;2023-02-07T18:23:01;16.10;;;7.77;;
29500;SDS011;16450;50.288;10.966;2023-02-07T18:26:03;19.37;;;12.83;;
29500;SDS011;16450;50.288;10.966;2023-02-07T18:29:05;21.30;;;13.47;;
29500;SDS011;16450;50.288;10.966;2023-02-07T18:32:07;24.47;;;13.87;;
29500;SDS011;16450;50.288;10.966;2023-02-07T18:35:08;19.70;;;12.23;;
29500;SDS011;16450;50.288;10.966;2023-02-07T18:38:11;22.30;;;12.80;;
29500;SDS011;16450;50.288;10.966;2023-02-07T18:41:14;30.23;;;16.27;;
29500;SDS011;16450;50.288;10.966;2023-02-07T18:44:17;22.53;;;12.33;;
29500;SDS011;16450;50.288;10.966;2023-02-07T18:47:20;25.17;;;15.37;;
29500;SDS011;16450;50.288;10.966;2023-02-07T18:50:22;19.27;;;11.43;;
29500;SDS011;16450;50.288;10.966;2023-02-07T18:53:25;31.73;;;18.50;;
29500;SDS011;16450;50.288;10.966;2023-02-07T18:56:27;29.17;;;17.20;;
29500;SDS011;16450;50.288;10.966;2023-02-07T18:59:28;31.80;;;19.37;;
29500;SDS011;16450;50.288;10.966;2023-02-07T19:02:31;19.17;;;11.13;;
29500;SDS011;16450;50.288;10.966;2023-02-07T19:05:33;22.23;;;11.07;;
29500;SDS011;16450;50.288;10.966;2023-02-07T19:08:36;18.90;;;9.90;;
29500;SDS011;16450;50.288;10.966;2023-02-07T19:11:38;18.10;;;9.93;;
29500;SDS011;16450;50.288;10.966;2023-02-07T19:14:40;19.90;;;9.73;;
29500;SDS011;16450;50.288;10.966;2023-02-07T19:17:42;18.13;;;10.03;;
29500;SDS011;16450;50.288;10.966;2023-02-07T19:20:44;19.10;;;10.07;;
29500;SDS011;16450;50.288;10.966;2023-02-07T19:23:46;24.47;;;12.90;;
29500;SDS011;16450;50.288;10.966;2023-02-07T19:26:49;20.07;;;11.33;;
29500;SDS011;16450;50.288;10.966;2023-02-07T19:29:52;20.43;;;11.23;;
29500;SDS011;16450;50.288;10.966;2023-02-07T19:32:54;22.10;;;12.03;;
29500;SDS011;16450;50.288;10.966;2023-02-07T19:35:56;21.00;;;11.43;;
29500;SDS011;16450;50.288;10.966;2023-02-07T19:39:03;22.83;;;12.90;;
29500;SDS011;16450;50.288;10.966;2023-02-07T19:42:05;23.10;;;12.50;;